createdAt,value
2019-03-20T00:00:31.672Z,10.39
2019-03-20T00:03:01.405Z,10.42
2019-03-20T00:05:31.131Z,10.41
2019-03-20T00:08:00.752Z,10.38
2019-03-20T00:10:30.525Z,10.33
2019-03-20T00:13:00.217Z,10.25
2019-03-20T00:15:29.936Z,10.19
2019-03-20T00:17:59.555Z,10.11
2019-03-20T00:20:29.297Z,10.17
2019-03-20T00:22:58.851Z,10.00
2019-03-20T00:25:28.586Z,9.82
2019-03-20T00:27:58.206Z,9.70
2019-03-20T00:30:27.798Z,9.54
2019-03-20T00:32:57.455Z,9.31
2019-03-20T00:35:27.095Z,9.17
2019-03-20T00:37:56.545Z,9.06
2019-03-20T00:40:26.395Z,9.01
2019-03-20T00:42:56.267Z,9.06
2019-03-20T00:45:25.987Z,9.17
2019-03-20T00:47:55.606Z,9.35
2019-03-20T00:50:25.257Z,9.39
2019-03-20T00:52:54.988Z,9.45
2019-03-20T00:55:24.554Z,9.47
2019-03-20T00:57:54.365Z,9.49
2019-03-20T01:00:24.211Z,9.41
2019-03-20T01:02:54.084Z,9.31
2019-03-20T01:05:24.177Z,9.24
2019-03-20T01:07:54.146Z,9.27
2019-03-20T01:10:23.944Z,9.32
2019-03-20T01:12:53.708Z,9.38
2019-03-20T01:15:23.402Z,9.42
2019-03-20T01:17:53.114Z,9.32
2019-03-20T01:20:22.835Z,9.34
2019-03-20T01:22:52.622Z,9.31
2019-03-20T01:25:22.386Z,9.34
2019-03-20T01:27:52.086Z,9.12
2019-03-20T01:30:37.863Z,9.02
2019-03-20T01:33:09.045Z,9.12
2019-03-20T01:35:39.051Z,9.04
2019-03-20T01:38:09.979Z,9.08
2019-03-20T01:40:40.489Z,9.08
2019-03-20T01:43:10.649Z,9.07
2019-03-20T01:45:40.682Z,9.06
2019-03-20T01:48:10.452Z,9.02
2019-03-20T01:50:40.080Z,8.98
2019-03-20T01:53:09.681Z,8.98
2019-03-20T01:55:39.332Z,9.03
2019-03-20T01:58:08.922Z,9.05
2019-03-20T02:00:38.826Z,9.07
2019-03-20T02:03:08.519Z,9.04
2019-03-20T02:05:38.233Z,8.98
2019-03-20T02:08:07.958Z,8.97
2019-03-20T02:10:37.759Z,8.99
2019-03-20T02:13:07.524Z,8.97
2019-03-20T02:15:39.211Z,8.94
2019-03-20T02:18:08.712Z,8.94
2019-03-20T02:20:38.395Z,8.81
2019-03-20T02:23:08.064Z,8.82
2019-03-20T02:25:37.804Z,8.82
2019-03-20T02:28:07.378Z,8.75
2019-03-20T02:30:37.053Z,8.81
2019-03-20T02:33:06.674Z,8.81
2019-03-20T02:35:50.173Z,8.79
2019-03-20T02:38:07.927Z,8.74
2019-03-20T02:40:37.711Z,8.63
2019-03-20T02:43:07.422Z,8.66
2019-03-20T02:45:40.079Z,8.69
2019-03-20T02:48:09.673Z,8.72
2019-03-20T02:50:39.303Z,8.68
2019-03-20T02:53:09.091Z,8.68
2019-03-20T02:55:38.817Z,8.62
2019-03-20T02:58:08.500Z,8.55
2019-03-20T03:00:38.283Z,8.55
2019-03-20T03:03:07.973Z,8.55
2019-03-20T03:05:37.805Z,8.41
2019-03-20T03:08:07.461Z,8.41
2019-03-20T03:10:37.280Z,8.50
2019-03-20T03:13:06.971Z,8.43
2019-03-20T03:15:36.677Z,8.43
2019-03-20T03:18:06.576Z,8.40
2019-03-20T03:20:36.194Z,8.30
2019-03-20T03:23:05.786Z,8.28
2019-03-20T03:25:35.440Z,8.28
2019-03-20T03:28:05.229Z,8.28
2019-03-20T03:30:34.742Z,8.31
2019-03-20T03:33:04.535Z,8.30
2019-03-20T03:35:34.102Z,8.22
2019-03-20T03:38:03.758Z,8.22
2019-03-20T03:40:33.392Z,8.06
2019-03-20T03:43:03.057Z,8.06
2019-03-20T03:45:32.638Z,7.90
2019-03-20T03:48:02.338Z,7.93
2019-03-20T03:50:32.092Z,7.93
2019-03-20T03:53:01.856Z,8.00
2019-03-20T03:55:31.455Z,7.99
2019-03-20T03:58:01.271Z,8.11
2019-03-20T04:00:30.927Z,8.07
2019-03-20T04:03:00.796Z,8.07
2019-03-20T04:05:30.381Z,8.10
2019-03-20T04:07:59.883Z,8.14
2019-03-20T04:10:29.616Z,7.93
2019-03-20T04:12:59.279Z,7.93
2019-03-20T04:15:28.978Z,8.05
2019-03-20T04:17:58.674Z,8.08
2019-03-20T04:20:28.367Z,8.14
2019-03-20T04:22:58.139Z,8.14
2019-03-20T04:25:27.643Z,8.14
2019-03-20T04:27:59.444Z,8.08
2019-03-20T04:30:29.021Z,8.16
2019-03-20T04:32:58.853Z,8.14
2019-03-20T04:35:29.231Z,8.18
2019-03-20T04:38:00.034Z,8.10
2019-03-20T04:40:29.579Z,8.07
2019-03-20T04:42:59.297Z,7.98
2019-03-20T04:45:28.964Z,7.98
2019-03-20T04:47:58.580Z,8.13
2019-03-20T04:50:28.369Z,8.16
2019-03-20T04:52:58.035Z,8.28
2019-03-20T04:55:29.757Z,8.28
2019-03-20T04:57:59.286Z,8.28
2019-03-20T05:00:29.012Z,8.19
2019-03-20T05:03:00.915Z,8.35
2019-03-20T05:05:29.982Z,8.50
2019-03-20T05:07:59.669Z,8.56
2019-03-20T05:10:29.251Z,8.56
2019-03-20T05:12:59.032Z,8.56
2019-03-20T05:15:28.802Z,8.58
2019-03-20T05:17:58.382Z,8.62
2019-03-20T05:20:27.995Z,8.70
2019-03-20T05:22:57.678Z,8.74
2019-03-20T05:25:27.259Z,8.78
2019-03-20T05:27:56.990Z,8.78
2019-03-20T05:30:26.748Z,8.89
2019-03-20T05:32:56.537Z,8.89
2019-03-20T05:35:26.138Z,8.89
2019-03-20T05:37:55.799Z,9.13
2019-03-20T05:40:25.297Z,9.12
2019-03-20T05:42:54.870Z,9.22
2019-03-20T05:45:24.808Z,9.30
2019-03-20T05:47:54.469Z,9.21
2019-03-20T05:50:24.122Z,9.37
2019-03-20T05:52:53.901Z,9.54
2019-03-20T05:55:23.527Z,9.82
2019-03-20T05:57:53.197Z,9.86
2019-03-20T06:00:22.948Z,9.98
2019-03-20T06:02:52.544Z,10.03
2019-03-20T06:05:22.240Z,10.17
2019-03-20T06:07:52.037Z,10.31
2019-03-20T06:10:21.684Z,10.51
2019-03-20T06:12:51.349Z,10.78
2019-03-20T06:15:20.982Z,11.12
2019-03-20T06:17:50.546Z,11.58
2019-03-20T06:20:20.294Z,11.74
2019-03-20T06:22:49.937Z,11.93
2019-03-20T06:25:21.298Z,12.17
2019-03-20T06:27:52.919Z,13.00
2019-03-20T06:30:22.567Z,13.77
2019-03-20T06:32:52.030Z,14.55
2019-03-20T06:35:21.717Z,15.56
2019-03-20T06:37:51.348Z,16.36
2019-03-20T06:40:20.971Z,16.78
2019-03-20T06:42:50.624Z,17.29
2019-03-20T06:45:20.568Z,18.99
2019-03-20T06:47:50.243Z,19.19
2019-03-20T06:50:19.990Z,20.15
2019-03-20T06:52:49.743Z,21.50
2019-03-20T06:55:19.478Z,22.35
2019-03-20T06:57:49.146Z,22.18
2019-03-20T07:00:59.155Z,23.68
2019-03-20T07:04:05.196Z,23.72
2019-03-20T07:06:42.314Z,24.70
2019-03-20T07:09:22.462Z,24.98
2019-03-20T07:11:52.094Z,24.89
2019-03-20T07:14:21.720Z,25.33
2019-03-20T07:16:51.565Z,25.31
2019-03-20T07:19:21.026Z,26.75
2019-03-20T07:21:50.692Z,28.07
2019-03-20T07:24:20.421Z,29.72
2019-03-20T07:26:50.104Z,29.62
2019-03-20T07:29:19.641Z,30.49
2019-03-20T07:31:49.294Z,30.12
2019-03-20T07:34:18.887Z,31.15
2019-03-20T07:36:48.691Z,32.11
2019-03-20T07:39:18.329Z,32.86
2019-03-20T07:41:47.937Z,32.84
2019-03-20T07:44:17.684Z,32.97
2019-03-20T07:46:47.422Z,31.31
2019-03-20T07:49:17.145Z,33.26
2019-03-20T07:51:46.753Z,33.93
2019-03-20T07:54:16.432Z,34.53
2019-03-20T07:56:47.294Z,34.73
2019-03-20T07:59:16.973Z,35.90
2019-03-20T08:01:46.591Z,36.22
2019-03-20T08:04:16.225Z,36.04
2019-03-20T08:06:45.987Z,36.75
2019-03-20T08:09:15.663Z,37.82
2019-03-20T08:11:45.398Z,37.46
2019-03-20T08:14:15.075Z,38.09
2019-03-20T08:16:44.740Z,38.31
2019-03-20T08:19:14.379Z,37.75
2019-03-20T08:21:44.039Z,36.66
2019-03-20T08:24:13.679Z,36.88
2019-03-20T08:26:43.420Z,37.10
2019-03-20T08:29:13.084Z,36.73
2019-03-20T08:31:42.957Z,37.78
2019-03-20T08:34:12.568Z,38.65
2019-03-20T08:36:42.292Z,39.31
2019-03-20T08:39:11.982Z,39.49
2019-03-20T08:41:41.812Z,39.01
2019-03-20T08:44:11.430Z,39.69
2019-03-20T08:46:41.203Z,40.21
2019-03-20T08:49:10.882Z,39.85
2019-03-20T08:51:40.558Z,39.89
2019-03-20T08:54:10.234Z,39.63
2019-03-20T08:56:39.767Z,40.12
2019-03-20T08:59:09.534Z,41.02
2019-03-20T09:01:39.123Z,41.41
2019-03-20T09:04:08.783Z,40.43
2019-03-20T09:06:38.402Z,40.11
2019-03-20T09:09:09.430Z,39.96
2019-03-20T09:11:39.158Z,40.82
2019-03-20T09:14:08.992Z,40.63
2019-03-20T09:16:38.601Z,41.34
2019-03-20T09:19:08.249Z,41.74
2019-03-20T09:21:38.101Z,40.67
2019-03-20T09:24:07.825Z,38.22
2019-03-20T09:26:37.402Z,39.36
2019-03-20T09:29:17.982Z,40.56
2019-03-20T09:31:38.553Z,41.01
2019-03-20T09:34:08.069Z,38.72
2019-03-20T09:36:43.007Z,40.41
2019-03-20T09:39:09.635Z,40.51
2019-03-20T09:41:39.194Z,39.32
2019-03-20T09:44:09.003Z,40.02
2019-03-20T09:46:38.850Z,41.12
2019-03-20T09:49:08.550Z,41.06
2019-03-20T09:51:38.074Z,41.63
2019-03-20T09:54:07.686Z,42.10
2019-03-20T09:56:37.431Z,42.25
2019-03-20T09:59:07.169Z,41.12
2019-03-20T10:01:36.786Z,41.08
2019-03-20T10:04:06.632Z,40.79
2019-03-20T10:06:37.911Z,42.09
2019-03-20T10:09:09.150Z,41.94
2019-03-20T10:11:38.931Z,41.36
2019-03-20T10:14:08.576Z,40.45
2019-03-20T10:16:38.348Z,38.33
2019-03-20T10:19:07.996Z,38.72
2019-03-20T10:21:37.655Z,39.13
2019-03-20T10:24:07.280Z,39.28
2019-03-20T10:26:36.945Z,40.15
2019-03-20T10:29:06.530Z,40.23
2019-03-20T10:31:36.205Z,40.26
2019-03-20T10:34:05.979Z,40.22
2019-03-20T10:36:35.659Z,40.88
2019-03-20T10:39:07.285Z,40.78
2019-03-20T10:41:36.960Z,40.34
2019-03-20T10:44:06.764Z,40.40
2019-03-20T10:46:36.429Z,39.77
2019-03-20T10:49:06.205Z,40.77
2019-03-20T10:51:35.808Z,39.98
2019-03-20T10:54:05.858Z,38.90
2019-03-20T10:56:35.627Z,39.34
2019-03-20T10:59:05.216Z,40.25
2019-03-20T11:01:42.590Z,40.42
2019-03-20T11:04:06.284Z,40.55
2019-03-20T11:06:36.051Z,40.76
2019-03-20T11:09:17.789Z,41.07
2019-03-20T11:11:39.793Z,41.05
2019-03-20T11:14:09.297Z,40.21
2019-03-20T11:16:39.176Z,39.31
2019-03-20T11:19:08.629Z,39.08
2019-03-20T11:21:38.148Z,38.36
2019-03-20T11:24:07.685Z,38.59
2019-03-20T11:26:37.217Z,38.50
2019-03-20T11:29:06.888Z,38.62
2019-03-20T11:31:36.653Z,37.89
2019-03-20T11:34:06.462Z,37.89
2019-03-20T11:36:36.204Z,37.73
2019-03-20T11:39:09.587Z,36.44
2019-03-20T11:41:39.293Z,34.68
2019-03-20T11:44:09.143Z,33.40
2019-03-20T11:46:38.947Z,30.59
2019-03-20T11:49:08.575Z,29.16
2019-03-20T11:51:38.158Z,27.25
2019-03-20T11:54:07.935Z,26.44
2019-03-20T11:56:37.621Z,26.34
2019-03-20T11:59:07.340Z,25.25
2019-03-20T12:01:37.046Z,24.71
2019-03-20T12:04:06.926Z,24.04
2019-03-20T12:06:36.630Z,23.57
2019-03-20T12:09:09.440Z,23.43
2019-03-20T12:11:45.755Z,23.44
2019-03-20T12:14:10.559Z,23.42
2019-03-20T12:16:40.182Z,23.15
2019-03-20T12:19:10.033Z,23.24
2019-03-20T12:21:39.629Z,22.71
2019-03-20T12:24:09.331Z,22.40
2019-03-20T12:26:39.090Z,22.46
2019-03-20T12:29:08.760Z,22.61
2019-03-20T12:31:38.512Z,22.42
2019-03-20T12:34:08.277Z,22.26
2019-03-20T12:36:38.003Z,22.11
2019-03-20T12:39:09.759Z,21.87
2019-03-20T12:41:39.457Z,21.66
2019-03-20T12:44:09.191Z,21.80
2019-03-20T12:46:41.600Z,21.61
2019-03-20T12:49:10.265Z,21.72
2019-03-20T12:51:40.172Z,21.34
2019-03-20T12:54:09.785Z,21.29
2019-03-20T12:56:39.290Z,21.25
2019-03-20T12:59:08.903Z,21.20
2019-03-20T13:01:38.545Z,21.31
2019-03-20T13:04:08.161Z,21.06
2019-03-20T13:06:37.871Z,20.87
2019-03-20T13:09:09.246Z,20.90
2019-03-20T13:11:38.997Z,20.92
2019-03-20T13:14:08.601Z,20.85
2019-03-20T13:16:38.325Z,20.62
2019-03-20T13:19:08.063Z,20.49
2019-03-20T13:21:37.642Z,20.43
2019-03-20T13:24:07.334Z,20.43
2019-03-20T13:26:37.964Z,20.45
2019-03-20T13:29:07.702Z,20.37
2019-03-20T13:31:37.359Z,20.13
2019-03-20T13:34:07.210Z,19.94
2019-03-20T13:36:36.967Z,19.81
2019-03-20T13:39:08.198Z,19.75
2019-03-20T13:41:37.713Z,19.83
2019-03-20T13:44:07.417Z,19.85
2019-03-20T13:46:36.999Z,19.87
2019-03-20T13:49:06.585Z,19.58
2019-03-20T13:51:36.331Z,19.42
2019-03-20T13:54:06.090Z,19.35
2019-03-20T13:56:35.870Z,19.38
2019-03-20T13:59:05.504Z,19.44
2019-03-20T14:01:35.118Z,19.53
2019-03-20T14:04:04.906Z,19.48
2019-03-20T14:06:34.550Z,19.47
2019-03-20T14:09:06.342Z,19.38
2019-03-20T14:11:35.903Z,19.16
2019-03-20T14:14:05.601Z,19.28
2019-03-20T14:16:35.268Z,19.18
2019-03-20T14:19:04.817Z,19.13
2019-03-20T14:21:34.306Z,18.91
2019-03-20T14:24:04.160Z,18.77
2019-03-20T14:26:33.780Z,18.47
2019-03-20T14:29:03.380Z,18.27
2019-03-20T14:31:33.096Z,18.31
2019-03-20T14:34:02.835Z,18.11
2019-03-20T14:36:32.568Z,17.79
2019-03-20T14:39:02.141Z,17.82
2019-03-20T14:41:31.772Z,17.89
2019-03-20T14:44:01.433Z,17.94
2019-03-20T14:46:31.125Z,17.95
2019-03-20T14:49:01.059Z,18.00
2019-03-20T14:52:43.245Z,18.14
2019-03-20T14:55:13.303Z,18.09
2019-03-20T14:57:43.046Z,18.04
2019-03-20T15:00:18.639Z,18.01
2019-03-20T15:02:48.640Z,18.02
2019-03-20T15:05:18.329Z,17.85
2019-03-20T15:07:48.094Z,17.74
2019-03-20T15:10:18.815Z,17.59
2019-03-20T15:12:48.537Z,17.32
2019-03-20T15:15:36.241Z,17.29
2019-03-20T15:18:06.053Z,17.24
2019-03-20T15:20:35.847Z,17.15
2019-03-20T15:23:06.064Z,17.17
2019-03-20T15:25:35.914Z,17.19
2019-03-20T15:28:05.664Z,17.13
2019-03-20T15:30:35.505Z,17.16
2019-03-20T15:33:05.345Z,17.21
2019-03-20T15:35:35.117Z,17.25
2019-03-20T15:38:05.073Z,17.26
2019-03-20T15:40:34.872Z,17.27
2019-03-20T15:43:04.862Z,17.18
2019-03-20T15:45:34.542Z,17.07
2019-03-20T15:48:04.485Z,17.04
2019-03-20T15:50:34.226Z,17.00
2019-03-20T15:53:04.135Z,16.90
2019-03-20T15:55:33.856Z,16.78
2019-03-20T15:58:03.578Z,16.74
2019-03-20T16:00:33.144Z,16.69
2019-03-20T16:03:05.619Z,16.65
2019-03-20T16:05:35.485Z,16.54
2019-03-20T16:08:05.151Z,16.52
2019-03-20T16:10:35.206Z,16.48
2019-03-20T16:13:05.214Z,16.40
2019-03-20T16:15:35.131Z,16.27
2019-03-20T16:18:04.835Z,16.22
2019-03-20T16:20:34.610Z,16.06
2019-03-20T16:23:04.563Z,16.18
2019-03-20T16:25:34.161Z,16.16
2019-03-20T16:28:03.782Z,16.07
2019-03-20T16:30:33.761Z,15.95
2019-03-20T16:33:03.464Z,15.91
2019-03-20T16:35:33.073Z,15.79
2019-03-20T16:38:02.741Z,15.70
2019-03-20T16:40:32.428Z,15.62
2019-03-20T16:43:02.200Z,15.47
2019-03-20T16:45:32.166Z,15.44
2019-03-20T16:48:02.124Z,15.38
2019-03-20T16:50:31.975Z,15.29
2019-03-20T16:53:01.662Z,15.23
2019-03-20T16:55:31.351Z,15.19
2019-03-20T16:58:01.278Z,15.02
2019-03-20T17:00:31.342Z,14.86
2019-03-20T17:03:01.571Z,14.69
2019-03-20T17:05:31.647Z,14.73
2019-03-20T17:08:01.612Z,14.64
2019-03-20T17:10:33.374Z,14.61
2019-03-20T17:13:03.174Z,14.58
2019-03-20T17:15:32.701Z,14.60
2019-03-20T17:18:02.461Z,14.64
2019-03-20T17:20:32.173Z,14.62
2019-03-20T17:23:01.883Z,14.61
2019-03-20T17:25:31.886Z,14.66
2019-03-20T17:28:01.805Z,14.71
2019-03-20T17:30:33.416Z,14.75
2019-03-20T17:33:03.085Z,14.44
2019-03-20T17:35:32.654Z,14.21
2019-03-20T17:38:02.589Z,14.11
2019-03-20T17:40:32.433Z,14.02
2019-03-20T17:43:02.479Z,14.05
2019-03-20T17:45:32.519Z,14.15
2019-03-20T17:48:02.256Z,14.06
2019-03-20T17:50:32.158Z,14.11
2019-03-20T17:53:02.339Z,14.17
2019-03-20T17:55:32.140Z,14.15
2019-03-20T17:58:01.890Z,14.12
2019-03-20T18:00:35.177Z,14.12
2019-03-20T18:03:06.003Z,14.15
2019-03-20T18:05:35.933Z,14.15
2019-03-20T18:08:05.986Z,14.17
2019-03-20T18:10:35.687Z,14.18
2019-03-20T18:13:05.719Z,14.15
2019-03-20T18:15:35.768Z,13.97
2019-03-20T18:18:06.143Z,14.03
2019-03-20T18:20:35.744Z,14.02
2019-03-20T18:23:06.374Z,14.00
2019-03-20T18:25:36.046Z,13.98
2019-03-20T18:28:05.970Z,13.96
2019-03-20T18:30:35.916Z,13.92
2019-03-20T18:33:07.015Z,13.95
2019-03-20T18:35:37.845Z,13.95
2019-03-20T18:38:08.150Z,13.95
2019-03-20T18:40:37.972Z,13.93
2019-03-20T18:43:07.619Z,13.91
2019-03-20T18:45:37.395Z,13.92
2019-03-20T18:48:07.359Z,13.88
2019-03-20T18:50:37.165Z,13.85
2019-03-20T18:53:06.796Z,13.87
2019-03-20T18:55:36.418Z,13.88
2019-03-20T18:58:08.114Z,13.88
2019-03-20T19:00:37.851Z,13.91
2019-03-20T19:03:07.371Z,13.91
2019-03-20T19:06:00.103Z,13.93
2019-03-20T19:08:29.870Z,13.69
2019-03-20T19:10:59.777Z,13.58
2019-03-20T19:13:29.624Z,13.36
2019-03-20T19:15:59.519Z,13.32
2019-03-20T19:18:29.244Z,13.45
2019-03-20T19:20:58.943Z,13.45
2019-03-20T19:23:28.598Z,13.58
2019-03-20T19:25:58.308Z,13.65
2019-03-20T19:28:27.892Z,13.57
2019-03-20T19:30:57.558Z,13.62
2019-03-20T19:33:27.454Z,13.66
2019-03-20T19:35:57.267Z,13.76
2019-03-20T19:38:34.797Z,13.78
2019-03-20T19:40:58.351Z,13.80
2019-03-20T19:43:28.073Z,13.80
2019-03-20T19:45:57.775Z,13.68
2019-03-20T19:48:29.486Z,13.76
2019-03-20T19:50:59.006Z,13.64
2019-03-20T19:53:28.725Z,13.59
2019-03-20T19:55:58.337Z,13.49
2019-03-20T19:58:27.966Z,13.34
2019-03-20T20:00:57.753Z,13.46
2019-03-20T20:03:27.441Z,13.30
2019-03-20T20:05:57.042Z,13.18
2019-03-20T20:08:26.709Z,13.16
2019-03-20T20:10:56.438Z,13.12
2019-03-20T20:13:26.040Z,13.09
2019-03-20T20:15:55.570Z,13.03
2019-03-20T20:18:25.345Z,13.01
2019-03-20T20:20:55.211Z,12.96
2019-03-20T20:23:24.736Z,13.00
2019-03-20T20:25:54.468Z,12.86
2019-03-20T20:28:24.080Z,12.75
2019-03-20T20:30:53.849Z,12.71
2019-03-20T20:33:23.538Z,12.66
2019-03-20T20:35:53.212Z,12.55
2019-03-20T20:38:22.988Z,12.52
2019-03-20T20:40:52.709Z,12.42
2019-03-20T20:43:22.241Z,12.35
2019-03-20T20:45:51.851Z,12.36
2019-03-20T20:48:21.719Z,12.39
2019-03-20T20:50:51.506Z,12.33
2019-03-20T20:53:21.147Z,12.37
2019-03-20T20:55:50.772Z,12.38
2019-03-20T20:58:20.348Z,12.36
2019-03-20T21:00:50.097Z,12.38
2019-03-20T21:03:19.734Z,12.33
2019-03-20T21:05:49.540Z,12.42
2019-03-20T21:08:19.174Z,12.36
2019-03-20T21:10:48.931Z,12.36
2019-03-20T21:13:18.620Z,12.35
2019-03-20T21:15:50.463Z,12.35
2019-03-20T21:19:16.024Z,12.30
2019-03-20T21:22:25.833Z,12.38
2019-03-20T21:24:56.026Z,12.41
2019-03-20T21:28:03.823Z,12.42
2019-03-20T21:31:01.419Z,12.39
2019-03-20T21:34:04.364Z,12.32
2019-03-20T21:37:18.209Z,12.22
2019-03-20T21:39:48.485Z,12.34
2019-03-20T21:43:06.907Z,12.22
2019-03-20T21:46:02.626Z,12.33
2019-03-20T21:48:32.806Z,12.19
2019-03-20T21:51:12.523Z,12.19
2019-03-20T21:54:22.947Z,12.19
2019-03-20T21:57:52.272Z,12.19
2019-03-20T22:00:57.694Z,12.28
2019-03-20T22:03:27.829Z,12.25
2019-03-20T22:06:34.094Z,12.27
2019-03-20T22:09:50.918Z,12.17
2019-03-20T22:12:44.682Z,12.11
2019-03-20T22:15:51.055Z,12.05
2019-03-20T22:19:12.248Z,12.12
2019-03-20T22:22:06.436Z,12.03
2019-03-20T22:25:27.219Z,12.05
2019-03-20T22:28:34.662Z,12.05
2019-03-20T22:31:04.811Z,11.98
2019-03-20T22:34:10.306Z,11.92
2019-03-20T22:36:42.482Z,11.93
2019-03-20T22:39:49.925Z,11.94
2019-03-20T22:42:40.070Z,11.97
2019-03-20T22:45:36.214Z,12.03
2019-03-20T22:48:31.937Z,12.00
2019-03-20T22:51:46.865Z,11.99
2019-03-20T22:54:55.818Z,11.97
2019-03-20T22:58:02.734Z,12.03
2019-03-20T23:00:33.502Z,12.14
2019-03-20T23:03:08.701Z,12.22
2019-03-20T23:05:38.931Z,12.16
2019-03-20T23:08:13.781Z,12.17
2019-03-20T23:10:44.138Z,12.32
2019-03-20T23:13:18.952Z,12.19
2019-03-20T23:15:46.079Z,12.27
2019-03-20T23:18:16.278Z,12.20
2019-03-20T23:20:46.549Z,12.09
2019-03-20T23:23:16.647Z,12.02
2019-03-20T23:25:46.837Z,12.06
2019-03-20T23:28:16.913Z,12.04
2019-03-20T23:30:47.210Z,12.05
2019-03-20T23:33:17.191Z,12.21
2019-03-20T23:35:47.515Z,12.29
2019-03-20T23:38:17.666Z,12.32
2019-03-20T23:40:47.915Z,12.40
2019-03-20T23:43:18.109Z,12.31
2019-03-20T23:45:48.496Z,12.37
2019-03-20T23:48:34.880Z,12.38
2019-03-20T23:51:08.889Z,12.44
2019-03-20T23:53:40.718Z,12.36
2019-03-20T23:56:10.824Z,12.39
2019-03-20T23:58:40.868Z,12.38
